createdAt,value
2023-05-02T00:00:18.813Z,8.55
2023-05-02T00:02:24.513Z,8.80
2023-05-02T00:04:29.804Z,8.88
2023-05-02T00:06:35.595Z,8.52
2023-05-02T00:08:40.802Z,9.07
2023-05-02T00:10:46.484Z,9.38
2023-05-02T00:12:51.537Z,9.82
2023-05-02T00:14:56.914Z,8.25
2023-05-02T00:17:05.617Z,9.45
2023-05-02T00:19:10.908Z,9.25
2023-05-02T00:21:16.741Z,9.40
2023-05-02T00:23:21.852Z,8.90
2023-05-02T00:25:26.858Z,9.48
2023-05-02T00:27:33.946Z,9.05
2023-05-02T00:29:39.477Z,9.45
2023-05-02T00:31:44.745Z,10.15
2023-05-02T00:33:52.384Z,9.70
2023-05-02T00:35:57.839Z,10.13
2023-05-02T00:38:03.502Z,9.43
2023-05-02T00:40:10.886Z,10.07
2023-05-02T00:42:16.261Z,9.68
2023-05-02T00:44:22.208Z,8.75
2023-05-02T00:46:27.432Z,9.77
2023-05-02T00:48:33.006Z,9.18
2023-05-02T00:50:46.117Z,8.88
2023-05-02T00:52:51.468Z,10.18
2023-05-02T00:54:57.400Z,9.27
2023-05-02T00:57:03.815Z,9.68
2023-05-02T00:59:10.146Z,9.35
2023-05-02T01:01:36.043Z,8.88
2023-05-02T01:03:54.264Z,10.20
2023-05-02T01:06:16.046Z,10.43
2023-05-02T01:08:34.367Z,10.10
2023-05-02T01:10:53.192Z,10.40
2023-05-02T01:13:06.669Z,9.88
2023-05-02T01:15:19.695Z,9.52
2023-05-02T01:19:39.167Z,10.43
2023-05-02T01:21:47.562Z,9.93
2023-05-02T01:24:05.887Z,11.45
2023-05-02T01:26:23.552Z,10.40
2023-05-02T01:28:39.546Z,10.70
2023-05-02T01:30:50.933Z,9.88
2023-05-02T01:32:59.958Z,10.90
2023-05-02T01:35:08.059Z,11.38
2023-05-02T01:37:15.699Z,10.43
2023-05-02T01:39:26.021Z,11.20
2023-05-02T01:41:35.542Z,10.43
2023-05-02T01:43:42.670Z,10.85
2023-05-02T01:45:54.395Z,12.07
2023-05-02T01:48:01.124Z,11.23
2023-05-02T01:50:10.963Z,11.55
2023-05-02T01:52:18.615Z,12.05
2023-05-02T01:54:26.987Z,11.93
2023-05-02T01:56:35.778Z,11.13
2023-05-02T01:58:41.827Z,12.70
2023-05-02T02:00:48.712Z,13.10
2023-05-02T02:03:00.595Z,13.20
2023-05-02T02:05:10.975Z,13.70
2023-05-02T02:07:17.321Z,12.32
2023-05-02T02:09:22.637Z,11.88
2023-05-02T02:11:39.495Z,10.90
2023-05-02T02:13:51.661Z,10.52
2023-05-02T02:16:04.435Z,8.05
2023-05-02T02:18:17.818Z,10.95
2023-05-02T02:20:24.788Z,10.85
2023-05-02T02:22:32.403Z,10.02
2023-05-02T02:24:41.909Z,10.55
2023-05-02T02:26:47.837Z,10.05
2023-05-02T02:28:53.415Z,9.73
2023-05-02T02:30:59.425Z,9.45
2023-05-02T02:33:04.901Z,10.95
2023-05-02T02:35:14.242Z,10.60
2023-05-02T02:37:22.950Z,9.82
2023-05-02T02:39:47.361Z,9.90
2023-05-02T02:42:04.818Z,10.77
2023-05-02T02:44:25.992Z,10.27
2023-05-02T02:46:45.349Z,10.93
2023-05-02T02:48:59.588Z,10.52
2023-05-02T02:51:16.233Z,10.07
2023-05-02T02:53:28.862Z,10.25
2023-05-02T02:55:47.746Z,9.00
2023-05-02T02:58:02.681Z,10.13
2023-05-02T03:00:16.452Z,9.25
2023-05-02T03:02:25.906Z,9.07
2023-05-02T03:04:33.437Z,8.98
2023-05-02T03:06:42.435Z,10.35
2023-05-02T03:08:48.442Z,9.60
2023-05-02T03:10:57.352Z,9.65
2023-05-02T03:13:02.426Z,9.70
2023-05-02T03:15:24.771Z,9.40
2023-05-02T03:17:30.445Z,8.90
2023-05-02T03:19:35.779Z,9.05
2023-05-02T03:21:43.682Z,8.30
2023-05-02T03:23:55.044Z,8.35
2023-05-02T03:26:00.325Z,7.72
2023-05-02T03:28:05.840Z,8.40
2023-05-02T03:30:12.773Z,8.95
2023-05-02T03:32:17.789Z,7.90
2023-05-02T03:34:23.727Z,9.23
2023-05-02T03:36:30.364Z,9.38
2023-05-02T03:38:38.037Z,8.27
2023-05-02T03:40:47.061Z,9.35
2023-05-02T03:42:52.120Z,8.30
2023-05-02T03:45:06.682Z,7.88
2023-05-02T03:47:13.815Z,9.90
2023-05-02T03:49:20.630Z,9.02
2023-05-02T03:51:28.054Z,9.35
2023-05-02T03:53:38.499Z,9.20
2023-05-02T03:55:44.750Z,10.13
2023-05-02T03:57:56.742Z,11.55
2023-05-02T04:00:02.233Z,10.98
2023-05-02T04:02:17.120Z,10.43
2023-05-02T04:04:26.184Z,10.23
2023-05-02T04:06:33.273Z,9.85
2023-05-02T04:08:44.967Z,10.02
2023-05-02T04:10:50.522Z,9.65
2023-05-02T04:12:55.615Z,10.05
2023-05-02T04:15:01.970Z,10.85
2023-05-02T04:17:08.760Z,10.48
2023-05-02T04:19:22.084Z,10.67
2023-05-02T04:21:27.761Z,10.40
2023-05-02T04:23:33.648Z,9.15
2023-05-02T04:25:43.051Z,9.57
2023-05-02T04:27:48.919Z,10.73
2023-05-02T04:29:58.567Z,10.10
2023-05-02T04:32:03.933Z,9.07
2023-05-02T04:34:10.400Z,9.18
2023-05-02T04:36:20.680Z,9.35
2023-05-02T04:38:26.434Z,9.63
2023-05-02T04:40:32.394Z,9.15
2023-05-02T04:42:44.870Z,10.20
2023-05-02T04:44:55.813Z,10.32
2023-05-02T04:47:00.925Z,9.68
2023-05-02T04:49:06.559Z,10.05
2023-05-02T04:51:12.829Z,10.15
2023-05-02T04:53:20.920Z,10.57
2023-05-02T04:55:26.523Z,10.90
2023-05-02T04:57:31.674Z,10.48
2023-05-02T04:59:41.483Z,11.38
2023-05-02T05:01:47.851Z,9.50
2023-05-02T05:03:53.252Z,10.73
2023-05-02T05:05:58.760Z,10.63
2023-05-02T05:08:04.531Z,10.25
2023-05-02T05:10:14.119Z,10.15
2023-05-02T05:12:23.492Z,9.43
2023-05-02T05:14:29.378Z,9.30
2023-05-02T05:16:37.739Z,9.18
2023-05-02T05:18:43.198Z,9.32
2023-05-02T05:20:50.991Z,8.60
2023-05-02T05:22:56.168Z,9.02
2023-05-02T05:25:02.944Z,8.63
2023-05-02T05:27:10.276Z,9.25
2023-05-02T05:29:15.720Z,9.63
2023-05-02T05:31:23.293Z,8.73
2023-05-02T05:33:36.275Z,8.85
2023-05-02T05:35:42.472Z,7.97
2023-05-02T05:37:47.969Z,8.60
2023-05-02T05:39:55.489Z,8.32
2023-05-02T05:42:02.740Z,8.20
2023-05-02T05:44:08.580Z,7.93
2023-05-02T05:46:14.127Z,8.05
2023-05-02T05:48:19.240Z,7.97
2023-05-02T05:50:27.906Z,7.85
2023-05-02T05:52:32.940Z,8.13
2023-05-02T05:54:39.927Z,8.45
2023-05-02T05:56:45.017Z,8.25
2023-05-02T05:58:54.920Z,7.90
2023-05-02T06:01:00.422Z,8.93
2023-05-02T06:03:07.395Z,10.82
2023-05-02T06:05:14.551Z,10.90
2023-05-02T06:07:23.905Z,11.50
2023-05-02T06:09:29.236Z,11.98
2023-05-02T06:11:34.918Z,12.23
2023-05-02T06:13:39.987Z,12.70
2023-05-02T06:15:46.390Z,12.43
2023-05-02T06:17:53.282Z,11.85
2023-05-02T06:19:58.582Z,12.93
2023-05-02T06:22:04.307Z,14.02
2023-05-02T06:24:12.077Z,14.05
2023-05-02T06:26:17.534Z,13.85
2023-05-02T06:28:22.808Z,13.43
2023-05-02T06:30:28.103Z,13.50
2023-05-02T06:32:34.249Z,13.00
2023-05-02T06:34:39.358Z,13.98
2023-05-02T06:36:44.545Z,16.20
2023-05-02T06:38:50.401Z,15.13
2023-05-02T06:40:58.308Z,16.30
2023-05-02T06:43:03.603Z,14.48
2023-05-02T06:45:10.379Z,13.77
2023-05-02T06:47:15.913Z,15.52
2023-05-02T06:49:21.004Z,15.85
2023-05-02T06:51:26.425Z,14.52
2023-05-02T06:53:33.028Z,15.20
2023-05-02T06:55:38.351Z,15.60
2023-05-02T06:57:46.516Z,15.27
2023-05-02T06:59:51.523Z,15.25
2023-05-02T07:01:57.014Z,16.05
2023-05-02T07:04:04.060Z,15.65
2023-05-02T07:06:09.235Z,15.73
2023-05-02T07:08:14.357Z,15.75
2023-05-02T07:10:19.400Z,16.98
2023-05-02T07:12:24.872Z,15.70
2023-05-02T07:14:32.488Z,15.65
2023-05-02T07:16:37.630Z,16.90
2023-05-02T07:18:42.946Z,16.08
2023-05-02T07:20:48.634Z,15.85
2023-05-02T07:22:54.258Z,16.88
2023-05-02T07:25:04.457Z,16.50
2023-05-02T07:27:09.513Z,16.58
2023-05-02T07:29:14.522Z,15.77
2023-05-02T07:31:22.369Z,16.20
2023-05-02T07:33:27.989Z,16.08
2023-05-02T07:35:33.047Z,16.95
2023-05-02T07:37:38.824Z,16.05
2023-05-02T07:39:43.860Z,17.42
2023-05-02T07:41:48.911Z,18.15
2023-05-02T07:43:54.413Z,18.08
2023-05-02T07:45:59.481Z,19.25
2023-05-02T07:48:08.443Z,18.77
2023-05-02T07:50:14.461Z,17.55
2023-05-02T07:52:19.482Z,17.30
2023-05-02T07:54:26.385Z,16.65
2023-05-02T07:56:33.493Z,15.98
2023-05-02T07:58:39.078Z,16.88
2023-05-02T08:00:44.097Z,16.48
2023-05-02T08:02:49.148Z,16.85
2023-05-02T08:04:56.864Z,17.05
2023-05-02T08:07:01.913Z,17.00
2023-05-02T08:09:07.064Z,15.70
2023-05-02T08:11:12.156Z,18.05
2023-05-02T08:13:17.225Z,18.08
2023-05-02T08:15:22.235Z,18.52
2023-05-02T08:17:29.279Z,18.38
2023-05-02T08:19:34.414Z,19.10
2023-05-02T08:21:42.032Z,20.25
2023-05-02T08:23:47.051Z,19.45
2023-05-02T08:25:52.115Z,18.45
2023-05-02T08:27:57.142Z,18.10
2023-05-02T08:30:02.383Z,18.02
2023-05-02T08:32:08.408Z,18.13
2023-05-02T08:34:13.510Z,19.30
2023-05-02T08:36:20.444Z,17.73
2023-05-02T08:38:28.330Z,17.55
2023-05-02T08:40:42.372Z,19.30
2023-05-02T08:42:48.287Z,18.38
2023-05-02T08:44:54.233Z,18.85
2023-05-02T08:47:00.248Z,18.85
2023-05-02T08:49:06.386Z,19.77
2023-05-02T08:51:13.391Z,16.23
2023-05-02T08:53:20.825Z,16.95
2023-05-02T08:55:29.429Z,16.08
2023-05-02T08:57:34.949Z,15.98
2023-05-02T08:59:40.337Z,15.43
2023-05-02T09:01:49.006Z,15.85
2023-05-02T09:03:56.066Z,15.82
2023-05-02T09:06:10.325Z,14.57
2023-05-02T09:08:16.647Z,15.35
2023-05-02T09:10:22.359Z,14.05
2023-05-02T09:12:31.303Z,13.68
2023-05-02T09:14:36.667Z,13.40
2023-05-02T09:16:42.723Z,12.40
2023-05-02T09:18:50.264Z,11.55
2023-05-02T09:20:56.309Z,13.07
2023-05-02T09:23:01.340Z,11.65
2023-05-02T09:25:07.810Z,12.10
2023-05-02T09:27:13.406Z,11.27
2023-05-02T09:29:23.441Z,11.80
2023-05-02T09:31:53.992Z,12.07
2023-05-02T09:33:57.088Z,11.85
2023-05-02T09:36:02.119Z,12.57
2023-05-02T09:38:07.264Z,11.65
2023-05-02T09:40:14.354Z,9.90
2023-05-02T09:42:34.212Z,8.38
2023-05-02T09:44:43.321Z,7.47
2023-05-02T09:46:51.481Z,4.95
2023-05-02T09:48:58.441Z,3.13
2023-05-02T09:51:05.190Z,5.10
2023-05-02T09:53:12.317Z,5.78
2023-05-02T09:55:24.251Z,6.47
2023-05-02T09:57:43.556Z,6.40
2023-05-02T10:00:01.128Z,5.53
2023-05-02T10:02:09.829Z,5.28
2023-05-02T10:04:18.980Z,5.10
2023-05-02T10:06:24.801Z,4.72
2023-05-02T10:08:31.554Z,4.88
2023-05-02T10:10:39.385Z,5.55
2023-05-02T10:12:45.280Z,5.45
2023-05-02T10:14:59.464Z,4.68
2023-05-02T10:17:14.454Z,4.45
2023-05-02T10:19:26.926Z,4.82
2023-05-02T10:21:32.994Z,4.03
2023-05-02T10:23:38.882Z,3.85
2023-05-02T10:25:44.320Z,3.72
2023-05-02T10:27:50.631Z,3.92
2023-05-02T10:29:56.351Z,3.75
2023-05-02T10:32:03.994Z,3.88
2023-05-02T10:34:13.910Z,4.38
2023-05-02T10:36:22.984Z,4.40
2023-05-02T10:38:28.758Z,4.40
2023-05-02T10:40:34.327Z,3.70
2023-05-02T10:42:43.053Z,4.05
2023-05-02T10:44:49.105Z,3.67
2023-05-02T10:46:54.416Z,3.97
2023-05-02T10:49:11.977Z,3.65
2023-05-02T10:51:32.150Z,3.83
2023-05-02T10:53:39.771Z,3.75
2023-05-02T10:55:44.851Z,3.50
2023-05-02T10:58:24.285Z,3.00
2023-05-02T11:00:32.503Z,2.45
2023-05-02T11:02:53.393Z,2.13
2023-05-02T11:05:09.353Z,1.70
2023-05-02T11:07:22.430Z,1.90
2023-05-02T11:09:38.888Z,1.50
2023-05-02T11:11:45.417Z,1.38
2023-05-02T11:13:53.607Z,1.40
2023-05-02T11:16:02.185Z,1.55
2023-05-02T11:18:10.000Z,1.65
2023-05-02T11:20:35.265Z,1.80
2023-05-02T11:22:40.890Z,1.35
2023-05-02T11:24:47.950Z,1.33
2023-05-02T11:26:53.117Z,1.25
2023-05-02T11:28:58.197Z,1.35
2023-05-02T11:31:03.717Z,1.60
2023-05-02T11:33:20.666Z,1.27
2023-05-02T11:35:28.036Z,1.40
2023-05-02T11:37:36.593Z,1.20
2023-05-02T11:39:41.717Z,1.17
2023-05-02T11:41:48.436Z,1.00
2023-05-02T11:44:06.661Z,0.93
2023-05-02T11:46:12.753Z,0.80
2023-05-02T11:48:22.545Z,0.60
2023-05-02T11:50:30.447Z,1.13
2023-05-02T11:52:41.466Z,1.20
2023-05-02T11:54:47.508Z,1.42
2023-05-02T11:56:52.624Z,1.20
2023-05-02T11:59:02.018Z,1.50
2023-05-02T12:01:17.741Z,1.45
2023-05-02T12:03:29.861Z,2.60
2023-05-02T12:05:36.059Z,1.47
2023-05-02T12:07:45.975Z,1.38
2023-05-02T12:09:54.921Z,1.27
2023-05-02T12:12:02.103Z,1.40
2023-05-02T12:14:08.414Z,1.95
2023-05-02T12:16:13.624Z,1.45
2023-05-02T12:18:21.520Z,1.20
2023-05-02T12:20:28.335Z,1.60
2023-05-02T12:22:34.069Z,1.13
2023-05-02T12:24:43.683Z,2.13
2023-05-02T12:26:50.129Z,0.52
2023-05-02T12:28:58.386Z,1.70
2023-05-02T12:31:13.927Z,1.17
2023-05-02T12:33:19.580Z,0.90
2023-05-02T12:35:25.773Z,0.70
2023-05-02T12:37:31.908Z,0.47
2023-05-02T12:39:44.492Z,0.70
2023-05-02T12:41:49.593Z,0.60
2023-05-02T12:43:54.789Z,0.60
2023-05-02T12:46:13.657Z,0.70
2023-05-02T12:48:36.742Z,0.70
2023-05-02T12:50:42.730Z,0.50
2023-05-02T12:52:57.646Z,0.52
2023-05-02T12:55:24.615Z,0.60
2023-05-02T12:57:30.331Z,0.80
2023-05-02T12:59:36.156Z,0.70
2023-05-02T13:01:41.657Z,0.60
2023-05-02T13:03:48.438Z,0.50
2023-05-02T13:05:57.311Z,0.50
2023-05-02T13:08:03.133Z,0.55
2023-05-02T13:10:09.705Z,0.60
2023-05-02T13:12:18.433Z,0.70
2023-05-02T13:14:23.482Z,0.40
2023-05-02T13:16:30.507Z,0.60
2023-05-02T13:18:36.509Z,0.65
2023-05-02T13:20:41.619Z,0.77
2023-05-02T13:22:46.905Z,0.85
2023-05-02T13:24:51.943Z,0.55
2023-05-02T13:26:57.914Z,0.70
2023-05-02T13:29:06.200Z,0.70
2023-05-02T13:31:11.470Z,0.60
2023-05-02T13:33:17.386Z,1.13
2023-05-02T13:35:22.448Z,0.80
2023-05-02T13:37:28.268Z,0.70
2023-05-02T13:39:33.335Z,0.65
2023-05-02T13:41:38.723Z,0.88
2023-05-02T13:43:43.742Z,0.73
2023-05-02T13:45:52.561Z,0.70
2023-05-02T13:47:58.065Z,0.70
2023-05-02T13:50:03.715Z,0.95
2023-05-02T13:52:09.610Z,0.85
2023-05-02T13:54:15.420Z,0.93
2023-05-02T13:56:21.054Z,0.80
2023-05-02T13:58:26.273Z,0.75
2023-05-02T14:00:31.861Z,0.80
2023-05-02T14:02:40.261Z,0.60
2023-05-02T14:04:45.279Z,0.95
2023-05-02T14:06:50.635Z,0.70
2023-05-02T14:08:56.274Z,0.70
2023-05-02T14:11:01.333Z,0.70
2023-05-02T14:13:06.794Z,0.85
2023-05-02T14:15:13.245Z,1.20
2023-05-02T14:17:18.247Z,0.90
2023-05-02T14:19:26.348Z,0.68
2023-05-02T14:21:31.920Z,0.70
2023-05-02T14:23:37.390Z,0.63
2023-05-02T14:25:42.592Z,0.90
2023-05-02T14:27:47.639Z,1.65
2023-05-02T14:29:52.908Z,1.67
2023-05-02T14:31:57.981Z,2.22
2023-05-02T14:34:03.511Z,2.03
2023-05-02T14:36:12.669Z,2.08
2023-05-02T14:38:17.988Z,1.90
2023-05-02T14:40:23.019Z,2.00
2023-05-02T14:42:28.609Z,2.33
2023-05-02T14:44:33.942Z,2.17
2023-05-02T14:46:39.259Z,2.42
2023-05-02T14:48:44.810Z,2.30
2023-05-02T14:50:49.812Z,2.30
2023-05-02T14:52:57.669Z,2.17
2023-05-02T14:55:03.631Z,2.25
2023-05-02T14:57:09.259Z,2.42
2023-05-02T14:59:14.574Z,2.40
2023-05-02T15:01:20.859Z,2.28
2023-05-02T15:03:26.389Z,2.40
2023-05-02T15:05:31.772Z,2.50
2023-05-02T15:07:36.799Z,2.50
2023-05-02T15:09:44.819Z,3.10
2023-05-02T15:11:49.846Z,3.40
2023-05-02T15:13:56.593Z,3.42
2023-05-02T15:16:03.927Z,3.60
2023-05-02T15:18:09.228Z,3.53
2023-05-02T15:20:16.136Z,3.85
2023-05-02T15:22:22.444Z,3.88
2023-05-02T15:24:27.897Z,3.90
2023-05-02T15:26:36.357Z,4.22
2023-05-02T15:28:41.590Z,4.32
2023-05-02T15:30:46.933Z,4.45
2023-05-02T15:32:52.081Z,4.30
2023-05-02T15:34:57.670Z,4.40
2023-05-02T15:37:03.884Z,4.38
2023-05-02T15:39:09.919Z,4.53
2023-05-02T15:41:14.971Z,4.32
2023-05-02T15:43:23.031Z,4.10
2023-05-02T15:45:28.689Z,3.53
2023-05-02T15:47:33.895Z,3.95
2023-05-02T15:49:39.189Z,3.13
2023-05-02T15:51:44.237Z,3.80
2023-05-02T15:53:52.501Z,3.83
2023-05-02T15:55:58.073Z,3.83
2023-05-02T15:58:03.107Z,3.50
2023-05-02T16:00:17.013Z,3.65
2023-05-02T16:02:22.176Z,3.40
2023-05-02T16:04:28.770Z,4.05
2023-05-02T16:06:34.720Z,3.47
2023-05-02T16:08:39.768Z,3.80
2023-05-02T16:10:45.036Z,3.80
2023-05-02T16:12:50.134Z,3.95
2023-05-02T16:14:55.442Z,4.30
2023-05-02T16:17:04.129Z,4.50
2023-05-02T16:19:13.577Z,4.30
2023-05-02T16:21:19.078Z,4.47
2023-05-02T16:23:24.426Z,5.07
2023-05-02T16:25:30.114Z,4.72
2023-05-02T16:27:36.514Z,4.05
2023-05-02T16:29:42.067Z,4.85
2023-05-02T16:31:47.372Z,5.28
2023-05-02T16:33:55.240Z,4.93
2023-05-02T16:36:04.645Z,4.53
2023-05-02T16:38:09.773Z,4.35
2023-05-02T16:40:16.413Z,5.15
2023-05-02T16:42:21.463Z,4.75
2023-05-02T16:44:26.561Z,4.35
2023-05-02T16:46:32.119Z,4.00
2023-05-02T16:48:37.857Z,4.05
2023-05-02T16:50:45.449Z,3.75
2023-05-02T16:52:50.823Z,4.53
2023-05-02T16:54:56.135Z,4.15
2023-05-02T16:57:02.800Z,4.10
2023-05-02T16:59:07.809Z,3.50
2023-05-02T17:01:13.029Z,3.80
2023-05-02T17:03:18.115Z,3.78
2023-05-02T17:05:23.617Z,3.90
2023-05-02T17:07:31.518Z,4.05
2023-05-02T17:09:37.180Z,3.50
2023-05-02T17:11:42.284Z,3.67
2023-05-02T17:13:47.419Z,3.85
2023-05-02T17:15:53.018Z,3.50
2023-05-02T17:17:58.081Z,3.22
2023-05-02T17:20:03.725Z,3.17
2023-05-02T17:22:10.241Z,3.78
2023-05-02T17:24:18.002Z,3.90
2023-05-02T17:26:23.044Z,4.60
2023-05-02T17:28:28.660Z,4.20
2023-05-02T17:30:34.483Z,3.90
2023-05-02T17:32:40.366Z,4.45
2023-05-02T17:34:45.780Z,5.35
2023-05-02T17:36:50.823Z,5.38
2023-05-02T17:38:56.664Z,6.40
2023-05-02T17:41:04.316Z,6.78
2023-05-02T17:43:09.648Z,6.40
2023-05-02T17:45:15.171Z,6.18
2023-05-02T17:47:20.328Z,5.75
2023-05-02T17:49:26.639Z,5.72
2023-05-02T17:51:32.202Z,5.75
2023-05-02T17:53:37.825Z,6.43
2023-05-02T17:55:42.846Z,7.00
2023-05-02T17:57:50.454Z,6.60
2023-05-02T17:59:58.527Z,5.88
2023-05-02T18:02:04.064Z,6.15
2023-05-02T18:04:13.062Z,6.15
2023-05-02T18:06:19.439Z,5.97
2023-05-02T18:08:24.496Z,6.28
2023-05-02T18:10:30.258Z,5.75
2023-05-02T18:12:35.939Z,6.65
2023-05-02T18:14:43.835Z,6.85
2023-05-02T18:16:49.217Z,6.93
2023-05-02T18:18:54.481Z,7.28
2023-05-02T18:20:59.675Z,6.80
2023-05-02T18:23:06.174Z,7.47
2023-05-02T18:25:11.860Z,6.80
2023-05-02T18:27:16.908Z,6.18
2023-05-02T18:29:21.996Z,6.20
2023-05-02T18:31:29.657Z,5.45
2023-05-02T18:33:35.010Z,5.25
2023-05-02T18:35:40.048Z,6.13
2023-05-02T18:37:45.049Z,5.97
2023-05-02T18:39:50.061Z,6.03
2023-05-02T18:41:55.075Z,5.63
2023-05-02T18:44:00.933Z,5.57
2023-05-02T18:46:06.041Z,5.80
2023-05-02T18:48:13.643Z,5.95
2023-05-02T18:50:18.710Z,6.55
2023-05-02T18:52:24.811Z,5.40
2023-05-02T18:54:29.832Z,5.72
2023-05-02T18:56:35.400Z,5.60
2023-05-02T18:58:40.416Z,6.20
2023-05-02T19:00:45.958Z,5.75
2023-05-02T19:02:54.417Z,5.90
2023-05-02T19:05:02.879Z,6.32
2023-05-02T19:07:09.339Z,6.15
2023-05-02T19:09:15.882Z,5.53
2023-05-02T19:11:23.065Z,5.53
2023-05-02T19:13:28.494Z,5.53
2023-05-02T19:15:33.500Z,6.07
2023-05-02T19:17:39.416Z,5.60
2023-05-02T19:19:46.831Z,6.15
2023-05-02T19:21:55.266Z,6.03
2023-05-02T19:24:00.384Z,5.32
2023-05-02T19:26:06.048Z,5.65
2023-05-02T19:28:13.122Z,5.10
2023-05-02T19:30:18.668Z,5.28
2023-05-02T19:32:25.524Z,5.88
2023-05-02T19:34:31.970Z,5.22
2023-05-02T19:36:37.010Z,5.40
2023-05-02T19:38:45.402Z,5.55
2023-05-02T19:40:50.547Z,5.50
2023-05-02T19:42:57.242Z,5.63
2023-05-02T19:45:02.644Z,5.05
2023-05-02T19:47:08.048Z,6.32
2023-05-02T19:49:13.826Z,5.60
2023-05-02T19:51:25.337Z,5.28
2023-05-02T19:53:31.608Z,4.80
2023-05-02T19:55:39.251Z,5.55
2023-05-02T19:57:45.161Z,6.00
2023-05-02T19:59:50.169Z,5.63
2023-05-02T20:01:55.959Z,5.80
2023-05-02T20:04:01.532Z,5.78
2023-05-02T20:06:07.025Z,5.78
2023-05-02T20:08:12.558Z,6.20
2023-05-02T20:10:18.461Z,6.57
2023-05-02T20:12:26.172Z,6.85
2023-05-02T20:14:31.945Z,6.00
2023-05-02T20:16:37.073Z,5.50
2023-05-02T20:18:42.380Z,5.57
2023-05-02T20:20:47.480Z,5.72
2023-05-02T20:22:54.575Z,5.72
2023-05-02T20:24:59.939Z,5.55
2023-05-02T20:27:05.876Z,5.47
2023-05-02T20:29:13.742Z,5.88
2023-05-02T20:31:18.766Z,5.93
2023-05-02T20:33:27.485Z,5.65
2023-05-02T20:35:35.672Z,5.28
2023-05-02T20:37:40.888Z,5.55
2023-05-02T20:39:46.195Z,6.07
2023-05-02T20:41:51.718Z,5.70
2023-05-02T20:43:57.336Z,5.13
2023-05-02T20:46:12.980Z,6.15
2023-05-02T20:48:20.000Z,5.47
2023-05-02T20:50:25.714Z,6.00
2023-05-02T20:52:30.883Z,5.65
2023-05-02T20:54:36.550Z,5.43
2023-05-02T20:56:41.955Z,5.55
2023-05-02T20:58:46.981Z,5.30
2023-05-02T21:00:52.822Z,6.03
2023-05-02T21:03:00.527Z,5.25
2023-05-02T21:05:06.627Z,5.88
2023-05-02T21:07:11.746Z,5.75
2023-05-02T21:09:18.791Z,5.93
2023-05-02T21:11:23.876Z,6.20
2023-05-02T21:13:28.968Z,6.30
2023-05-02T21:15:38.642Z,6.05
2023-05-02T21:17:43.737Z,6.20
2023-05-02T21:19:51.320Z,5.57
2023-05-02T21:21:56.322Z,6.55
2023-05-02T21:24:01.386Z,6.55
2023-05-02T21:26:07.221Z,6.13
2023-05-02T21:28:12.221Z,5.95
2023-05-02T21:30:18.075Z,6.00
2023-05-02T21:32:24.019Z,6.57
2023-05-02T21:34:29.350Z,5.68
2023-05-02T21:36:37.542Z,5.25
2023-05-02T21:38:42.647Z,6.00
2023-05-02T21:40:47.654Z,7.10
2023-05-02T21:42:52.644Z,6.30
2023-05-02T21:44:58.472Z,6.68
2023-05-02T21:47:03.845Z,6.80
2023-05-02T21:49:08.985Z,6.25
2023-05-02T21:51:15.183Z,6.72
2023-05-02T21:53:22.816Z,6.40
2023-05-02T21:55:28.754Z,5.97
2023-05-02T21:57:33.803Z,6.13
2023-05-02T21:59:38.807Z,6.35
2023-05-02T22:01:44.093Z,6.70
2023-05-02T22:03:49.132Z,6.05
2023-05-02T22:05:54.688Z,6.45
2023-05-02T22:08:00.878Z,7.07
2023-05-02T22:10:10.265Z,6.25
2023-05-02T22:12:15.537Z,6.53
2023-05-02T22:14:22.086Z,7.72
2023-05-02T22:16:29.380Z,6.88
2023-05-02T22:18:34.515Z,7.28
2023-05-02T22:20:39.526Z,7.13
2023-05-02T22:22:44.809Z,7.28
2023-05-02T22:24:50.087Z,6.90
2023-05-02T22:26:58.597Z,7.13
2023-05-02T22:29:03.620Z,7.80
2023-05-02T22:31:08.984Z,6.45
2023-05-02T22:33:14.852Z,7.70
2023-05-02T22:35:20.138Z,7.95
2023-05-02T22:37:25.189Z,7.13
2023-05-02T22:39:30.759Z,7.65
2023-05-02T22:41:35.863Z,9.18
2023-05-02T22:43:43.480Z,7.70
2023-05-02T22:45:51.347Z,8.05
2023-05-02T22:47:56.636Z,8.07
2023-05-02T22:50:05.498Z,7.93
2023-05-02T22:52:10.861Z,8.30
2023-05-02T22:54:16.995Z,9.00
2023-05-02T22:56:22.057Z,8.32
2023-05-02T22:58:27.227Z,8.43
2023-05-02T23:00:34.955Z,8.52
2023-05-02T23:02:40.341Z,8.02
2023-05-02T23:04:45.961Z,8.20
2023-05-02T23:06:51.076Z,8.75
2023-05-02T23:08:56.112Z,7.28
2023-05-02T23:11:01.114Z,8.73
2023-05-02T23:13:06.733Z,9.32
2023-05-02T23:15:13.332Z,7.32
2023-05-02T23:17:20.960Z,8.07
2023-05-02T23:19:26.100Z,7.65
2023-05-02T23:21:31.148Z,8.70
2023-05-02T23:23:36.167Z,7.28
2023-05-02T23:25:42.749Z,7.18
2023-05-02T23:27:47.808Z,8.48
2023-05-02T23:29:52.951Z,8.00
2023-05-02T23:31:58.188Z,9.10
2023-05-02T23:34:05.924Z,8.43
2023-05-02T23:36:12.458Z,9.80
2023-05-02T23:38:17.612Z,9.60
2023-05-02T23:40:22.714Z,9.23
2023-05-02T23:42:27.781Z,10.43
2023-05-02T23:44:33.245Z,8.85
2023-05-02T23:46:38.371Z,7.93
2023-05-02T23:48:43.555Z,8.48
2023-05-02T23:50:51.356Z,8.77
2023-05-02T23:52:56.386Z,9.45
2023-05-02T23:55:01.437Z,8.73
2023-05-02T23:57:06.521Z,9.32
2023-05-02T23:59:11.577Z,8.27
